Time;durP1;ratioP1;P1;durP2;ratioP2;P2;SDS_P1;SDS_P2;PMS_P1;PMS_P2;Temp;Humidity;BMP_temperature;BMP_pressure;BME280_temperature;BME280_humidity;BME280_pressure;Samples;Min_cycle;Max_cycle;Signal;HPM_P1;HPM_P2
2021/11/09 00:00:16;;;;;;;22.98;12.45;;;8.40;99.90;;;;;;5131698;27;20069;-71
2021/11/09 00:02:43;;;;;;;18.13;10.10;;;8.40;99.90;;;;;;5132265;27;20524;-71
2021/11/09 00:05:13;;;;;;;21.20;11.23;;;8.40;99.90;;;;;;5130340;27;20051;-71
2021/11/09 00:10:40;;;;;;;23.88;11.88;;;8.30;99.90;;;;;;5027493;28;20192;-71
2021/11/09 00:13:05;;;;;;;24.10;12.90;;;8.30;99.90;;;;;;5108532;27;20039;-71
2021/11/09 00:15:33;;;;;;;21.80;12.13;;;8.30;99.90;;;;;;5110826;27;20122;-70
2021/11/09 00:18:02;;;;;;;24.10;11.32;;;8.30;99.90;;;;;;5127573;27;20043;-71
2021/11/09 00:20:32;;;;;;;22.00;11.52;;;8.30;99.90;;;;;;5128168;27;20043;-70
2021/11/09 00:22:58;;;;;;;28.67;13.75;;;8.30;99.90;;;;;;5125396;27;20047;-70
2021/11/09 00:25:25;;;;;;;32.00;13.75;;;8.30;99.90;;;;;;5110000;27;20043;-70
2021/11/09 00:27:52;;;;;;;22.08;12.93;;;8.30;99.90;;;;;;5127463;27;20122;-72
2021/11/09 00:30:20;;;;;;;21.98;12.60;;;8.30;99.90;;;;;;5109443;27;20458;-72
2021/11/09 00:32:46;;;;;;;27.45;13.43;;;8.30;99.90;;;;;;5128348;27;20047;-73
2021/11/09 00:35:15;;;;;;;23.73;13.07;;;8.20;99.90;;;;;;5128874;27;20507;-71
2021/11/09 00:37:42;;;;;;;21.45;10.63;;;8.20;99.90;;;;;;5126159;27;20543;-71
2021/11/09 00:40:09;;;;;;;28.30;14.65;;;8.20;99.90;;;;;;5130432;27;20039;-71
2021/11/09 00:42:36;;;;;;;21.90;10.52;;;8.10;99.90;;;;;;5131069;27;20039;-71
2021/11/09 00:45:05;;;;;;;21.17;11.88;;;8.10;99.90;;;;;;5130229;27;20096;-70
2021/11/09 00:47:31;;;;;;;22.05;13.25;;;8.10;99.90;;;;;;5112101;27;20040;-71
2021/11/09 00:49:57;;;;;;;28.40;12.95;;;8.00;99.90;;;;;;5129842;27;20035;-71
2021/11/09 00:52:23;;;;;;;28.30;12.57;;;8.00;99.90;;;;;;5128746;27;20032;-71
2021/11/09 00:54:49;;;;;;;18.30;11.40;;;7.90;99.90;;;;;;5130475;27;20031;-71
2021/11/09 00:57:15;;;;;;;26.67;14.32;;;7.90;99.90;;;;;;5129999;27;20051;-71
2021/11/09 00:59:41;;;;;;;20.98;11.77;;;7.90;99.90;;;;;;5129055;27;20347;-71
2021/11/09 01:02:07;;;;;;;26.38;14.68;;;7.80;99.90;;;;;;5126425;27;20587;-71
2021/11/09 01:04:33;;;;;;;22.83;13.15;;;7.80;99.90;;;;;;5127006;27;20126;-70
2021/11/09 01:07:00;;;;;;;33.30;16.60;;;7.70;99.90;;;;;;5126320;27;20046;-70
2021/11/09 01:09:26;;;;;;;29.85;15.35;;;7.70;99.90;;;;;;5125865;27;20039;-71
2021/11/09 01:11:53;;;;;;;26.50;14.05;;;7.70;99.90;;;;;;5125550;27;20119;-71
2021/11/09 01:14:21;;;;;;;24.13;12.68;;;7.70;99.90;;;;;;5109605;27;20190;-71
2021/11/09 01:16:48;;;;;;;39.58;18.65;;;7.70;99.90;;;;;;5109861;27;20043;-70
2021/11/09 01:19:14;;;;;;;30.30;16.23;;;7.70;99.90;;;;;;5129239;27;20206;-71
2021/11/09 01:21:42;;;;;;;26.77;16.00;;;7.60;99.90;;;;;;5130127;27;20389;-71
2021/11/09 01:24:09;;;;;;;35.40;18.52;;;7.60;99.90;;;;;;5111109;27;20031;-71
2021/11/09 01:26:34;;;;;;;38.72;19.80;;;7.60;99.90;;;;;;5130163;27;20038;-71
2021/11/09 01:29:06;;;;;;;31.13;18.17;;;7.60;99.90;;;;;;5128689;27;20041;-71
2021/11/09 01:31:33;;;;;;;30.63;15.32;;;7.60;99.90;;;;;;5128566;27;20035;-71
2021/11/09 01:33:59;;;;;;;28.48;16.45;;;7.60;99.90;;;;;;5110403;27;20047;-71
2021/11/09 01:36:26;;;;;;;42.65;23.15;;;7.60;99.90;;;;;;5129291;27;20446;-71
2021/11/09 01:38:52;;;;;;;35.80;20.25;;;7.60;99.90;;;;;;5126138;27;20063;-70
2021/11/09 01:41:18;;;;;;;28.45;16.85;;;7.50;99.90;;;;;;5127468;27;20077;-71
2021/11/09 01:43:44;;;;;;;31.13;17.45;;;7.50;99.90;;;;;;5126259;27;20042;-71
2021/11/09 01:46:11;;;;;;;35.75;20.17;;;7.50;99.90;;;;;;5108639;27;20091;-71
2021/11/09 01:48:40;;;;;;;30.95;16.48;;;7.50;99.90;;;;;;5129821;27;20439;-71
2021/11/09 01:51:08;;;;;;;33.38;19.48;;;7.50;99.90;;;;;;5129101;27;20031;-71
2021/11/09 01:53:35;;;;;;;35.22;18.88;;;7.40;99.90;;;;;;5126179;27;20039;-71
2021/11/09 01:56:04;;;;;;;28.98;17.83;;;7.50;99.90;;;;;;5110144;27;20587;-71
2021/11/09 01:58:32;;;;;;;42.28;23.75;;;7.40;99.90;;;;;;5129059;27;20051;-70
2021/11/09 02:01:04;;;;;;;37.78;22.15;;;7.40;99.90;;;;;;5128886;27;20166;-71
2021/11/09 02:03:30;;;;;;;34.13;20.65;;;7.40;99.90;;;;;;5129612;27;20508;-71
2021/11/09 02:05:56;;;;;;;34.80;20.95;;;7.30;99.90;;;;;;5127613;27;20077;-72
2021/11/09 02:08:24;;;;;;;32.33;18.55;;;7.30;99.90;;;;;;5127825;27;20077;-71
2021/11/09 02:10:51;;;;;;;34.67;19.08;;;7.30;99.90;;;;;;5129194;27;20047;-71
2021/11/09 02:13:20;;;;;;;33.20;21.08;;;7.30;99.90;;;;;;5091397;27;20507;-71
2021/11/09 02:15:50;;;;;;;31.38;19.92;;;7.30;99.90;;;;;;5129450;27;20118;-71
2021/11/09 02:18:18;;;;;;;34.22;20.55;;;7.20;99.90;;;;;;5127195;27;20485;-71
2021/11/09 02:20:57;;;;;;;35.22;18.95;;;7.20;99.90;;;;;;5108760;27;20039;-71
2021/11/09 02:23:25;;;;;;;24.75;17.17;;;7.20;99.90;;;;;;5121892;27;20043;-71
2021/11/09 02:25:51;;;;;;;31.95;16.30;;;7.10;99.90;;;;;;5126184;27;20039;-71
2021/11/09 02:28:18;;;;;;;35.25;19.75;;;7.10;99.90;;;;;;5124666;27;20150;-71
2021/11/09 02:30:45;;;;;;;35.67;19.60;;;7.10;99.90;;;;;;5126477;27;20035;-70
2021/11/09 02:33:11;;;;;;;30.40;16.45;;;7.10;99.90;;;;;;5124483;27;20493;-71
2021/11/09 02:35:37;;;;;;;31.75;17.50;;;7.10;99.90;;;;;;5127546;27;20047;-71
2021/11/09 02:38:07;;;;;;;30.63;16.90;;;7.10;99.90;;;;;;5124884;27;20066;-71
2021/11/09 02:40:34;;;;;;;32.45;16.40;;;7.00;99.90;;;;;;5123522;27;20035;-71
2021/11/09 02:43:09;;;;;;;30.65;14.52;;;7.00;99.90;;;;;;5125829;27;20043;-71
2021/11/09 02:48:26;;;;;;;26.23;16.02;;;7.00;99.90;;;;;;5127569;27;20043;-71
2021/11/09 02:50:59;;;;;;;28.83;14.68;;;7.00;99.90;;;;;;5109350;27;20051;-71
2021/11/09 02:56:02;;;;;;;28.73;15.77;;;6.90;99.90;;;;;;5109329;27;20097;-71
2021/11/09 03:01:32;;;;;;;35.92;16.20;;;6.90;99.90;;;;;;5075190;27;20529;-71
2021/11/09 03:06:35;;;;;;;33.08;17.60;;;6.90;99.90;;;;;;5110026;27;20134;-71
2021/11/09 03:09:09;;;;;;;33.53;17.50;;;6.90;99.90;;;;;;5106238;27;20035;-71
2021/11/09 03:11:39;;;;;;;33.03;16.63;;;6.90;99.90;;;;;;5128085;27;20069;-71
2021/11/09 03:14:05;;;;;;;36.00;19.60;;;6.80;99.90;;;;;;5128032;27;20095;-71
2021/11/09 03:16:35;;;;;;;33.88;17.70;;;6.80;99.90;;;;;;5128188;27;20043;-71
2021/11/09 03:44:25;;;;;;;32.58;17.95;;;6.60;99.90;;;;;;5084039;28;20086;-71
2021/11/09 03:46:56;;;;;;;32.50;18.92;;;6.60;99.90;;;;;;5068120;28;20055;-70
2021/11/09 03:49:26;;;;;;;40.42;18.73;;;6.60;99.90;;;;;;5107472;28;20446;-70
2021/11/09 03:51:53;;;;;;;36.03;18.63;;;6.50;99.90;;;;;;5126639;28;20035;-70
2021/11/09 03:54:26;;;;;;;37.28;18.90;;;6.50;99.90;;;;;;5126022;28;20079;-70
2021/11/09 03:57:00;;;;;;;33.58;17.90;;;6.50;99.90;;;;;;5127196;28;20038;-70
2021/11/09 04:00:18;;;;;;;32.10;18.33;;;6.50;99.90;;;;;;5126162;28;20091;-70
2021/11/09 04:07:11;;;;;;;33.60;19.23;;;6.50;99.90;;;;;;5126874;28;20040;-70
2021/11/09 04:14:56;;;;;;;37.93;18.73;;;6.40;99.90;;;;;;5127522;28;20066;-71
2021/11/09 04:20:10;;;;;;;36.03;19.65;;;6.40;99.90;;;;;;5126925;28;20470;-70
2021/11/09 04:23:28;;;;;;;38.33;19.88;;;6.40;99.90;;;;;;5111058;28;20549;-70
2021/11/09 05:10:58;;;;;;;36.67;21.93;;;6.00;99.90;;;;;;5106612;27;20378;-70
2021/11/09 05:13:25;;;;;;;41.60;22.90;;;6.00;99.90;;;;;;5112024;27;20047;-70
2021/11/09 05:15:51;;;;;;;41.47;22.30;;;6.00;99.90;;;;;;5130416;27;20066;-70
2021/11/09 05:18:18;;;;;;;48.80;22.67;;;6.00;99.90;;;;;;5111852;27;20423;-70
2021/11/09 05:20:44;;;;;;;41.97;23.27;;;6.00;99.90;;;;;;5130207;27;20043;-71
2021/11/09 05:23:10;;;;;;;52.27;25.97;;;6.00;99.90;;;;;;5111905;27;20405;-71
2021/11/09 05:25:36;;;;;;;45.57;23.93;;;5.90;99.90;;;;;;5112448;27;20043;-70
2021/11/09 05:28:02;;;;;;;42.30;23.30;;;6.00;99.90;;;;;;5126442;27;20098;-70
2021/11/09 05:30:30;;;;;;;43.93;23.23;;;6.00;99.90;;;;;;5117792;27;20112;-71
2021/11/09 05:32:59;;;;;;;43.30;25.45;;;6.00;99.90;;;;;;5091633;28;20043;-71
2021/11/09 05:35:26;;;;;;;40.97;22.50;;;5.90;99.90;;;;;;5109381;28;20043;-70
2021/11/09 05:37:54;;;;;;;42.03;23.23;;;5.90;99.90;;;;;;5096619;27;20100;-70
2021/11/09 05:40:26;;;;;;;44.40;24.50;;;5.90;99.90;;;;;;5130404;27;20051;-71
2021/11/09 05:42:52;;;;;;;45.37;25.23;;;5.90;99.90;;;;;;5128174;27;20047;-70
2021/11/09 05:45:18;;;;;;;42.27;23.70;;;5.90;99.90;;;;;;5128778;27;20079;-70
2021/11/09 05:47:44;;;;;;;40.80;24.40;;;5.90;99.90;;;;;;5128626;27;20046;-70
2021/11/09 05:50:10;;;;;;;47.97;24.90;;;5.90;99.90;;;;;;5129325;27;20050;-70
2021/11/09 05:52:36;;;;;;;49.50;24.52;;;5.90;99.90;;;;;;5126665;27;20130;-70
2021/11/09 05:55:03;;;;;;;47.90;25.50;;;5.80;99.90;;;;;;5091898;27;20070;-70
2021/11/09 05:57:29;;;;;;;40.93;25.70;;;5.90;99.90;;;;;;5125210;27;20043;-69
2021/11/09 05:59:55;;;;;;;43.33;23.67;;;5.80;99.90;;;;;;5124320;27;20532;-70
2021/11/09 06:02:22;;;;;;;48.73;25.47;;;5.90;99.90;;;;;;5118521;27;21113;-70
2021/11/09 06:04:52;;;;;;;46.87;25.83;;;5.90;99.90;;;;;;5120404;27;20067;-70
2021/11/09 06:07:18;;;;;;;46.95;25.85;;;5.90;99.90;;;;;;5125217;27;20106;-70
2021/11/09 06:09:45;;;;;;;48.33;27.37;;;5.80;99.90;;;;;;5123141;27;20039;-71
2021/11/09 06:12:11;;;;;;;42.87;25.57;;;5.90;99.90;;;;;;5123597;27;20266;-70
2021/11/09 06:14:36;;;;;;;44.93;26.57;;;5.90;99.90;;;;;;5127211;27;20142;-70
2021/11/09 06:17:03;;;;;;;46.40;24.87;;;5.90;99.90;;;;;;5107962;27;20081;-70
2021/11/09 06:19:32;;;;;;;46.40;27.60;;;5.80;99.90;;;;;;5127326;27;20045;-70
2021/11/09 06:21:58;;;;;;;43.47;26.30;;;5.80;99.90;;;;;;5127296;27;20050;-70
2021/11/09 06:24:26;;;;;;;45.30;27.07;;;5.80;99.90;;;;;;5126531;27;20168;-70
2021/11/09 06:26:53;;;;;;;44.20;25.37;;;5.90;99.90;;;;;;5103102;27;20090;-70
2021/11/09 06:29:20;;;;;;;44.00;27.37;;;5.80;99.90;;;;;;5121059;27;20577;-70
2021/11/09 06:31:45;;;;;;;44.60;26.50;;;5.80;99.90;;;;;;5096032;27;20040;-71
2021/11/09 06:34:11;;;;;;;43.23;24.67;;;5.80;99.90;;;;;;5116027;27;20470;-71
2021/11/09 06:36:37;;;;;;;46.80;26.67;;;5.80;99.90;;;;;;5122027;27;20092;-70
2021/11/09 06:39:04;;;;;;;44.67;25.77;;;5.80;99.90;;;;;;5103674;27;20042;-70
2021/11/09 06:41:30;;;;;;;45.47;26.27;;;5.80;99.90;;;;;;5116018;27;20525;-70
2021/11/09 06:43:56;;;;;;;38.53;24.90;;;5.80;99.90;;;;;;5114037;27;20329;-70
2021/11/09 06:46:22;;;;;;;38.80;27.13;;;5.80;99.90;;;;;;5114171;27;20504;-70
2021/11/09 06:48:48;;;;;;;38.27;26.93;;;5.80;99.90;;;;;;5120965;27;20077;-71
2021/11/09 06:51:15;;;;;;;47.10;25.73;;;5.80;99.90;;;;;;5106385;27;20043;-70
2021/11/09 06:53:42;;;;;;;49.43;27.67;;;5.80;99.90;;;;;;5105979;27;20173;-70
2021/11/09 06:56:08;;;;;;;45.73;26.37;;;5.80;99.90;;;;;;5125484;27;20042;-70
2021/11/09 06:58:36;;;;;;;44.90;26.83;;;5.80;99.90;;;;;;5124527;27;20539;-71
2021/11/09 07:01:03;;;;;;;42.37;26.60;;;5.80;99.90;;;;;;5126100;27;20528;-71
2021/11/09 07:03:32;;;;;;;46.53;26.37;;;5.80;99.90;;;;;;5121540;27;20039;-73
2021/11/09 07:05:58;;;;;;;41.07;23.83;;;5.90;99.90;;;;;;5121452;27;20042;-71
2021/11/09 07:08:24;;;;;;;42.20;26.90;;;5.80;99.90;;;;;;5124406;27;20494;-69
2021/11/09 07:10:50;;;;;;;42.37;26.33;;;5.80;99.90;;;;;;5107836;27;20057;-70
2021/11/09 07:13:16;;;;;;;43.20;26.63;;;5.80;99.90;;;;;;5119633;27;20046;-70
2021/11/09 07:15:42;;;;;;;42.93;26.03;;;5.90;99.90;;;;;;5124624;27;20036;-70
2021/11/09 07:18:09;;;;;;;52.90;26.33;;;5.90;99.90;;;;;;5121446;27;20047;-70
2021/11/09 07:20:37;;;;;;;40.47;24.57;;;5.90;99.90;;;;;;5121418;27;20043;-70
2021/11/09 07:23:04;;;;;;;44.03;25.07;;;5.90;99.90;;;;;;5111633;28;20043;-70
2021/11/09 07:25:31;;;;;;;43.17;25.47;;;5.90;99.90;;;;;;5125482;28;20031;-70
2021/11/09 07:27:57;;;;;;;38.03;25.43;;;5.90;99.90;;;;;;5107777;28;20100;-70
2021/11/09 07:30:27;;;;;;;43.45;25.17;;;5.90;99.90;;;;;;5121867;28;20070;-70
2021/11/09 07:32:53;;;;;;;39.67;25.47;;;5.90;99.90;;;;;;5122272;28;20043;-70
2021/11/09 07:35:18;;;;;;;36.50;24.67;;;5.90;99.90;;;;;;5099319;28;20039;-70
2021/11/09 07:37:45;;;;;;;38.50;22.85;;;6.00;99.90;;;;;;5100084;28;20062;-70
2021/11/09 07:40:12;;;;;;;39.53;23.50;;;6.00;99.90;;;;;;5098428;28;20497;-70
2021/11/09 07:42:47;;;;;;;41.40;25.00;;;6.00;99.90;;;;;;5100369;28;20056;-70
2021/11/09 07:45:16;;;;;;;42.87;24.23;;;6.00;99.90;;;;;;5116524;28;20043;-70
2021/11/09 07:47:42;;;;;;;42.03;24.77;;;6.00;99.90;;;;;;5119382;28;20400;-70
2021/11/09 07:50:08;;;;;;;38.77;25.17;;;6.10;99.90;;;;;;5115252;28;20027;-70
2021/11/09 07:52:34;;;;;;;39.23;23.33;;;6.10;99.90;;;;;;5114734;28;20050;-70
2021/11/09 07:55:04;;;;;;;40.33;25.67;;;6.10;99.90;;;;;;5114713;28;20054;-70
2021/11/09 07:57:41;;;;;;;40.28;24.30;;;6.10;99.90;;;;;;5116134;28;20040;-71
2021/11/09 08:00:26;;;;;;;38.95;24.38;;;6.20;99.90;;;;;;5104122;28;20055;-70
2021/11/09 08:03:08;;;;;;;39.13;23.50;;;6.20;99.90;;;;;;5100118;28;20734;-70
2021/11/09 08:05:39;;;;;;;40.43;24.47;;;6.20;99.90;;;;;;5092811;28;20509;-70
2021/11/09 08:08:13;;;;;;;42.70;23.00;;;6.30;99.90;;;;;;5125832;27;20036;-70
2021/11/09 08:10:40;;;;;;;35.13;22.13;;;6.40;99.90;;;;;;5127659;27;20054;-70
2021/11/09 08:13:05;;;;;;;42.00;23.17;;;6.50;99.90;;;;;;5129144;27;20031;-71
2021/11/09 08:15:32;;;;;;;42.27;23.87;;;6.50;99.90;;;;;;5108627;27;20166;-70
2021/11/09 08:17:58;;;;;;;38.63;24.27;;;6.50;99.90;;;;;;5128472;27;20061;-70
2021/11/09 08:20:27;;;;;;;34.50;22.23;;;6.60;99.90;;;;;;5109202;27;20126;-69
2021/11/09 08:22:53;;;;;;;37.53;23.52;;;6.60;99.90;;;;;;5129081;27;20122;-70
2021/11/09 08:25:19;;;;;;;38.80;24.23;;;6.70;99.90;;;;;;5129032;27;20046;-70
2021/11/09 08:27:48;;;;;;;37.10;23.83;;;6.70;99.90;;;;;;5129399;27;20058;-69
2021/11/09 08:30:14;;;;;;;34.57;23.63;;;6.80;99.90;;;;;;5108282;27;20054;-71
2021/11/09 08:32:42;;;;;;;38.13;24.13;;;6.90;99.90;;;;;;5121349;27;20034;-71
2021/11/09 08:35:11;;;;;;;38.50;23.17;;;7.00;99.90;;;;;;5124577;27;20047;-70
2021/11/09 08:37:37;;;;;;;40.95;23.83;;;7.10;99.90;;;;;;5124553;27;20478;-71
2021/11/09 08:40:09;;;;;;;36.10;24.33;;;7.10;99.90;;;;;;5128701;27;20046;-71
2021/11/09 08:42:40;;;;;;;32.63;22.33;;;7.20;99.90;;;;;;5129167;27;20035;-70
2021/11/09 08:47:37;;;;;;;36.40;22.15;;;7.40;99.90;;;;;;5129226;27;20069;-70
2021/11/09 08:50:03;;;;;;;33.67;22.23;;;7.40;99.90;;;;;;5108645;27;20043;-72
2021/11/09 08:52:31;;;;;;;34.83;22.40;;;7.50;99.90;;;;;;5126196;27;20051;-72
2021/11/09 08:55:12;;;;;;;34.08;22.38;;;7.60;99.90;;;;;;5128640;27;20043;-69
2021/11/09 09:05:55;;;;;;;31.45;21.05;;;7.80;99.90;;;;;;5119977;27;20075;-69
2021/11/09 09:08:23;;;;;;;34.92;19.75;;;7.90;99.90;;;;;;5097172;27;20070;-73
2021/11/09 09:10:49;;;;;;;34.50;20.27;;;7.90;99.90;;;;;;5121108;27;20062;-69
2021/11/09 09:13:16;;;;;;;33.13;20.65;;;8.00;99.90;;;;;;5068486;27;20212;-72
2021/11/09 09:15:42;;;;;;;31.80;19.77;;;8.00;99.90;;;;;;5126121;27;20043;-72
2021/11/09 09:18:08;;;;;;;37.03;19.50;;;8.10;99.90;;;;;;5108669;27;20412;-71
2021/11/09 09:23:31;;;;;;;31.85;19.65;;;8.10;99.90;;;;;;5116019;27;20038;-70
2021/11/09 09:53:01;;;;;;;33.55;18.75;;;8.80;99.90;;;;;;5126401;27;20039;-71
2021/11/09 09:55:40;;;;;;;37.63;21.15;;;8.90;99.90;;;;;;5098259;27;20050;-72
2021/11/09 09:58:10;;;;;;;34.63;20.63;;;8.90;99.90;;;;;;5125988;27;20046;-72
2021/11/09 10:00:37;;;;;;;;;;;9.00;99.90;;;;;;5126333;27;20071;-72
2021/11/09 10:03:04;;;;;;;39.38;20.17;;;9.10;99.90;;;;;;5127187;27;19919;-71
2021/11/09 10:05:38;;;;;;;39.95;19.17;;;9.10;99.90;;;;;;5126035;27;20042;-70
2021/11/09 10:08:16;;;;;;;38.50;18.33;;;9.20;99.90;;;;;;5125543;27;20142;-70
2021/11/09 10:10:44;;;;;;;34.55;19.50;;;9.20;99.90;;;;;;5127214;27;20046;-72
2021/11/09 10:13:20;;;;;;;35.80;18.05;;;9.30;99.90;;;;;;5126866;27;20050;-71
2021/11/09 10:15:53;;;;;;;36.70;19.40;;;9.30;99.90;;;;;;5127139;27;20091;-71
2021/11/09 10:18:23;;;;;;;42.20;19.58;;;9.40;99.90;;;;;;5126705;27;20043;-71
2021/11/09 10:20:51;;;;;;;35.88;19.52;;;9.50;99.90;;;;;;5126785;27;20063;-71
2021/11/09 10:23:19;;;;;;;33.13;17.38;;;9.50;99.90;;;;;;5126408;27;20035;-71
2021/11/09 10:25:46;;;;;;;30.67;17.73;;;9.60;99.90;;;;;;5126146;27;20035;-72
2021/11/09 10:28:18;;;;;;;32.03;17.58;;;9.60;99.90;;;;;;5125014;27;20058;-72
2021/11/09 10:30:46;;;;;;;34.00;18.60;;;9.60;99.90;;;;;;5127270;27;20050;-71
2021/11/09 10:33:14;;;;;;;32.67;15.93;;;9.70;99.90;;;;;;5127073;27;20112;-71
2021/11/09 10:35:42;;;;;;;35.72;16.90;;;9.70;99.90;;;;;;5126961;27;20491;-71
2021/11/09 10:38:09;;;;;;;33.55;17.85;;;9.80;99.90;;;;;;5106151;27;20401;-70
2021/11/09 10:40:44;;;;;;;39.28;17.88;;;9.80;99.90;;;;;;5127259;27;20035;-70
2021/11/09 10:43:11;;;;;;;32.83;17.23;;;9.90;99.90;;;;;;5126940;27;20039;-70
2021/11/09 10:45:38;;;;;;;37.85;16.73;;;9.90;99.90;;;;;;5126539;27;20133;-73
2021/11/09 10:48:12;;;;;;;34.50;16.45;;;9.90;99.90;;;;;;5125907;27;20031;-71
2021/11/09 10:50:47;;;;;;;36.80;16.30;;;9.90;99.90;;;;;;5108159;27;20067;-71
2021/11/09 10:53:29;;;;;;;33.35;16.48;;;10.00;99.90;;;;;;5124698;27;20334;-70
2021/11/09 11:04:32;;;;;;;32.15;14.25;;;10.10;99.90;;;;;;5123661;27;20507;-71
2021/11/09 11:07:02;;;;;;;29.30;13.85;;;10.20;99.90;;;;;;5109885;27;20031;-70
2021/11/09 11:09:28;;;;;;;27.02;12.70;;;10.20;99.90;;;;;;5088121;28;20051;-72
2021/11/09 11:11:59;;;;;;;26.88;14.48;;;10.20;99.90;;;;;;5108345;27;20556;-71
2021/11/09 11:14:27;;;;;;;28.90;13.77;;;10.20;99.90;;;;;;5093241;27;20371;-70
2021/11/09 11:17:00;;;;;;;26.35;13.35;;;10.20;99.90;;;;;;5127518;27;20594;-70
2021/11/09 11:19:33;;;;;;;27.48;13.50;;;10.20;99.90;;;;;;5106374;27;20058;-71
2021/11/09 11:22:05;;;;;;;27.90;12.60;;;10.30;99.90;;;;;;5110517;28;20035;-71
2021/11/09 11:24:31;;;;;;;30.73;13.02;;;10.30;99.90;;;;;;5121435;28;20122;-71
2021/11/09 11:26:58;;;;;;;24.30;13.02;;;10.30;99.90;;;;;;5120507;28;20078;-73
2021/11/09 11:29:31;;;;;;;24.15;12.32;;;10.30;99.90;;;;;;5100882;28;20044;-72
2021/11/09 11:32:01;;;;;;;27.23;13.18;;;10.30;99.90;;;;;;5115191;28;20262;-72
2021/11/09 11:34:29;;;;;;;24.25;12.30;;;10.30;99.90;;;;;;5073087;28;20546;-72
2021/11/09 11:36:56;;;;;;;27.85;12.13;;;10.40;99.90;;;;;;5111787;28;20059;-72
2021/11/09 11:39:24;;;;;;;25.30;11.52;;;10.40;99.90;;;;;;5109438;28;20035;-71
2021/11/09 11:41:58;;;;;;;26.23;12.90;;;10.50;99.90;;;;;;5117924;27;20497;-72
2021/11/09 11:44:31;;;;;;;24.45;11.93;;;10.40;99.90;;;;;;5121242;27;20051;-71
2021/11/09 11:47:19;;;;;;;29.75;12.23;;;10.50;99.90;;;;;;5126856;27;20088;-71
2021/11/09 11:49:46;;;;;;;23.98;11.90;;;10.50;99.90;;;;;;5128367;27;20672;-72
2021/11/09 11:52:19;;;;;;;25.20;12.30;;;10.60;99.90;;;;;;5120654;27;20122;-71
2021/11/09 11:54:55;;;;;;;26.48;12.38;;;10.60;99.90;;;;;;5130289;27;20046;-73
2021/11/09 11:57:42;;;;;;;26.38;12.82;;;10.60;99.90;;;;;;5114328;27;20100;-72
2021/11/09 12:00:24;;;;;;;27.77;12.63;;;10.70;99.90;;;;;;5108928;27;20602;-72
2021/11/09 12:02:51;;;;;;;26.17;12.55;;;10.60;99.90;;;;;;5118585;27;20080;-71
2021/11/09 12:05:35;;;;;;;23.20;12.02;;;10.70;99.90;;;;;;5118952;27;20043;-70
2021/11/09 12:08:01;;;;;;;28.85;12.73;;;10.70;99.90;;;;;;5091800;28;20652;-72
2021/11/09 12:10:49;;;;;;;23.83;12.05;;;10.70;99.90;;;;;;5110491;28;20380;-72
2021/11/09 12:13:17;;;;;;;24.60;11.75;;;10.70;99.90;;;;;;5112064;27;20046;-70
2021/11/09 12:15:54;;;;;;;25.23;12.27;;;10.70;99.90;;;;;;5110239;28;20044;-72
2021/11/09 12:18:32;;;;;;;26.08;12.27;;;10.80;99.90;;;;;;5129787;27;20042;-72
2021/11/09 12:21:08;;;;;;;30.85;13.30;;;10.80;99.90;;;;;;5128909;27;20525;-72
2021/11/09 12:23:37;;;;;;;20.80;11.02;;;10.80;99.90;;;;;;5117759;27;20043;-71
2021/11/09 12:26:03;;;;;;;30.48;12.98;;;10.80;99.90;;;;;;5121062;27;20421;-72
2021/11/09 12:28:39;;;;;;;30.17;12.52;;;10.80;99.90;;;;;;5110150;28;20108;-72
2021/11/09 12:31:13;;;;;;;22.42;11.77;;;10.80;99.90;;;;;;5125345;27;20047;-71
2021/11/09 12:33:50;;;;;;;27.02;11.55;;;10.80;99.90;;;;;;5110726;27;20043;-72
2021/11/09 12:36:21;;;;;;;20.00;12.23;;;10.80;99.90;;;;;;5130120;27;20448;-72
2021/11/09 12:38:50;;;;;;;25.83;12.23;;;10.90;99.90;;;;;;5130495;27;20039;-72
2021/11/09 12:41:29;;;;;;;19.77;10.75;;;10.90;99.90;;;;;;5130764;27;20484;-72
2021/11/09 12:44:08;;;;;;;24.75;11.75;;;10.90;99.90;;;;;;5131607;27;20119;-71
2021/11/09 12:46:41;;;;;;;24.83;11.32;;;10.90;99.90;;;;;;5120484;27;20047;-72
2021/11/09 12:49:10;;;;;;;27.73;11.82;;;10.90;99.90;;;;;;5103246;27;20065;-70
2021/11/09 12:51:39;;;;;;;24.40;11.03;;;10.90;99.90;;;;;;5109313;27;20565;-71
2021/11/09 12:54:07;;;;;;;26.80;11.45;;;11.00;99.90;;;;;;5123640;27;20039;-74
2021/11/09 12:56:35;;;;;;;24.40;11.55;;;10.90;99.90;;;;;;5128436;27;20051;-70
2021/11/09 12:59:10;;;;;;;24.55;13.00;;;11.00;99.90;;;;;;5130113;27;20062;-71
2021/11/09 13:04:30;;;;;;;25.00;12.73;;;11.00;99.90;;;;;;5123158;27;20043;-70
2021/11/09 13:10:04;;;;;;;32.35;13.82;;;11.00;99.90;;;;;;5129621;27;20172;-70
2021/11/09 13:12:32;;;;;;;;;;;11.00;99.90;;;;;;5103683;27;20090;-70
2021/11/09 13:15:05;;;;;;;26.23;13.45;;;11.00;99.90;;;;;;5130407;27;20115;-70
2021/11/09 13:17:35;;;;;;;28.48;13.38;;;11.00;99.90;;;;;;5120277;27;20497;-71
2021/11/09 13:23:06;;;;;;;25.50;12.38;;;10.90;99.90;;;;;;5120100;27;20127;-72
2021/11/09 13:25:46;;;;;;;29.25;13.10;;;10.90;99.90;;;;;;5111769;27;20044;-72
2021/11/09 13:28:12;;;;;;;26.27;13.70;;;10.90;99.90;;;;;;5118777;27;20579;-72
2021/11/09 13:30:43;;;;;;;25.75;13.30;;;10.90;99.90;;;;;;5116258;27;20047;-71
2021/11/09 13:33:09;;;;;;;;;;;11.00;99.90;;;;;;5097661;27;20489;-71
2021/11/09 13:35:43;;;;;;;26.83;12.40;;;10.90;99.90;;;;;;5098763;27;19927;-72
2021/11/09 13:38:19;;;;;;;28.77;12.85;;;10.90;99.90;;;;;;5101524;27;20039;-73
2021/11/09 13:41:10;;;;;;;30.83;13.82;;;11.00;99.90;;;;;;5107363;27;20087;-73
2021/11/09 13:43:42;;;;;;;27.45;13.05;;;10.90;99.90;;;;;;5107935;28;20089;-73
2021/11/09 13:46:12;;;;;;;27.60;12.48;;;11.00;99.90;;;;;;5093578;27;20054;-72
2021/11/09 13:48:40;;;;;;;29.73;12.90;;;11.00;99.90;;;;;;5101075;27;20380;-72
2021/11/09 13:51:09;;;;;;;24.02;12.50;;;11.00;99.90;;;;;;5129177;27;20120;-73
2021/11/09 13:53:40;;;;;;;30.13;13.83;;;11.00;99.90;;;;;;5112251;27;20711;-73
2021/11/09 13:56:15;;;;;;;24.95;12.43;;;11.00;99.90;;;;;;5111287;27;20220;-72
2021/11/09 13:58:59;;;;;;;34.78;13.40;;;11.00;99.90;;;;;;5119133;27;20163;-71
2021/11/09 14:01:37;;;;;;;29.17;13.10;;;11.00;99.90;;;;;;5132644;27;20605;-71
2021/11/09 14:10:08;;;;;;;28.83;12.98;;;11.00;99.90;;;;;;5059082;27;20492;-70
2021/11/09 14:17:36;;;;;;;27.98;13.65;;;11.10;99.90;;;;;;5128088;27;20051;-72
2021/11/09 14:20:22;;;;;;;29.30;12.98;;;11.00;99.90;;;;;;5128202;27;20071;-71
2021/11/09 14:23:07;;;;;;;31.58;14.25;;;11.10;99.90;;;;;;5092689;27;20759;-71
2021/11/09 14:25:34;;;;;;;27.85;13.98;;;11.00;99.90;;;;;;5128424;27;20047;-71
2021/11/09 14:28:00;;;;;;;26.98;13.50;;;11.00;99.90;;;;;;5088647;28;20070;-71
2021/11/09 14:30:27;;;;;;;32.25;14.95;;;11.00;99.90;;;;;;5111546;27;20050;-71
2021/11/09 14:33:22;;;;;;;32.50;14.48;;;11.00;99.90;;;;;;5112051;27;20043;-71
2021/11/09 14:35:54;;;;;;;27.52;13.02;;;10.90;99.90;;;;;;5103260;27;20343;-71
2021/11/09 14:38:27;;;;;;;30.23;14.60;;;10.90;99.90;;;;;;5128539;27;20049;-72
2021/11/09 14:40:55;;;;;;;29.70;13.88;;;10.90;99.90;;;;;;5124489;27;20044;-71
2021/11/09 14:43:30;;;;;;;26.88;13.52;;;10.90;99.90;;;;;;5089511;28;20052;-72
2021/11/09 14:46:10;;;;;;;26.33;13.73;;;10.90;99.90;;;;;;5107983;28;20043;-72
2021/11/09 14:51:14;;;;;;;24.40;12.25;;;10.90;99.90;;;;;;5114860;27;20047;-72
2021/11/09 14:56:33;;;;;;;33.45;12.68;;;10.90;99.90;;;;;;5114810;27;20047;-72
2021/11/09 14:59:02;;;;;;;22.30;11.73;;;10.90;99.90;;;;;;5129971;27;20049;-71
2021/11/09 15:02:00;;;;;;;27.15;12.10;;;10.90;99.90;;;;;;5073458;27;20055;-72
2021/11/09 15:12:58;;;;;;;23.23;11.73;;;10.80;99.90;;;;;;5101137;28;20444;-72
2021/11/09 15:29:20;;;;;;;24.90;12.90;;;10.70;99.90;;;;;;5115257;28;20423;-72
2021/11/09 15:31:54;;;;;;;29.08;12.85;;;10.70;99.90;;;;;;5123184;28;20394;-73
2021/11/09 15:34:33;;;;;;;24.45;12.77;;;10.80;99.90;;;;;;5061760;28;20161;-71
2021/11/09 15:37:48;;;;;;;24.75;12.07;;;10.70;99.90;;;;;;5088478;28;20538;-72
2021/11/09 15:39:46;;;;;;;25.98;11.95;;;10.70;99.90;;;;;;5102916;27;20502;-72
2021/11/09 15:42:14;;;;;;;25.73;12.27;;;10.70;99.90;;;;;;5092762;28;20099;-72
2021/11/09 15:44:40;;;;;;;26.35;12.38;;;10.70;99.90;;;;;;5116649;28;20043;-72
2021/11/09 15:47:06;;;;;;;27.08;12.07;;;10.70;99.90;;;;;;5107141;28;20062;-72
2021/11/09 15:49:33;;;;;;;20.10;10.23;;;10.70;99.90;;;;;;5120905;28;20065;-72
2021/11/09 15:52:01;;;;;;;24.10;11.73;;;10.70;99.90;;;;;;5121978;28;20043;-71
2021/11/09 15:54:27;;;;;;;25.58;12.10;;;10.70;99.90;;;;;;5100464;28;20494;-70
2021/11/09 15:56:53;;;;;;;22.88;10.48;;;10.70;99.90;;;;;;5120778;27;20563;-70
2021/11/09 15:59:19;;;;;;;27.67;11.88;;;10.70;99.90;;;;;;5100801;28;20139;-71
2021/11/09 16:01:45;;;;;;;24.30;11.45;;;10.70;99.90;;;;;;5089518;28;20032;-72